sensor_id;sensor_type;location;lat;lon;timestamp;P1;durP1;ratioP1;P2;durP2;ratioP2
75854;SDS011;64502;59.976;30.316;2022-11-20T00:02:17;2.67;;;0.70;;
75854;SDS011;64502;59.976;30.316;2022-11-20T00:04:43;2.40;;;0.50;;
75854;SDS011;64502;59.976;30.316;2022-11-20T00:07:08;4.10;;;0.65;;
75854;SDS011;64502;59.976;30.316;2022-11-20T00:09:33;1.95;;;0.40;;
75854;SDS011;64502;59.976;30.316;2022-11-20T00:11:59;2.10;;;0.60;;
75854;SDS011;64502;59.976;30.316;2022-11-20T00:14:24;2.47;;;0.63;;
75854;SDS011;64502;59.976;30.316;2022-11-20T00:16:50;2.33;;;0.55;;
75854;SDS011;64502;59.976;30.316;2022-11-20T00:19:15;2.33;;;0.52;;
75854;SDS011;64502;59.976;30.316;2022-11-20T00:21:41;2.25;;;0.70;;
75854;SDS011;64502;59.976;30.316;2022-11-20T00:24:08;2.35;;;0.60;;
75854;SDS011;64502;59.976;30.316;2022-11-20T00:26:34;1.73;;;0.40;;
75854;SDS011;64502;59.976;30.316;2022-11-20T00:29:00;2.25;;;0.40;;
75854;SDS011;64502;59.976;30.316;2022-11-20T00:31:26;3.90;;;0.95;;
75854;SDS011;64502;59.976;30.316;2022-11-20T00:33:53;2.75;;;0.70;;
75854;SDS011;64502;59.976;30.316;2022-11-20T00:36:19;3.85;;;0.82;;
75854;SDS011;64502;59.976;30.316;2022-11-20T00:38:47;1.95;;;0.40;;
75854;SDS011;64502;59.976;30.316;2022-11-20T00:41:16;2.58;;;0.50;;
75854;SDS011;64502;59.976;30.316;2022-11-20T00:43:42;1.95;;;0.60;;
75854;SDS011;64502;59.976;30.316;2022-11-20T00:46:09;1.80;;;0.35;;
75854;SDS011;64502;59.976;30.316;2022-11-20T00:48:37;2.53;;;0.55;;
75854;SDS011;64502;59.976;30.316;2022-11-20T00:51:03;2.63;;;0.40;;
75854;SDS011;64502;59.976;30.316;2022-11-20T00:53:28;2.47;;;0.55;;
75854;SDS011;64502;59.976;30.316;2022-11-20T00:56:01;1.80;;;0.52;;
75854;SDS011;64502;59.976;30.316;2022-11-20T00:58:29;1.77;;;0.50;;
75854;SDS011;64502;59.976;30.316;2022-11-20T01:00:59;3.42;;;0.80;;
75854;SDS011;64502;59.976;30.316;2022-11-20T01:03:27;2.53;;;0.70;;
75854;SDS011;64502;59.976;30.316;2022-11-20T01:05:52;2.47;;;0.55;;
75854;SDS011;64502;59.976;30.316;2022-11-20T01:08:18;1.80;;;0.40;;
75854;SDS011;64502;59.976;30.316;2022-11-20T01:10:43;2.67;;;0.50;;
75854;SDS011;64502;59.976;30.316;2022-11-20T01:13:09;2.45;;;0.47;;
75854;SDS011;64502;59.976;30.316;2022-11-20T01:15:53;2.45;;;0.50;;
75854;SDS011;64502;59.976;30.316;2022-11-20T01:18:18;3.03;;;0.93;;
75854;SDS011;64502;59.976;30.316;2022-11-20T01:20:44;2.20;;;0.50;;
75854;SDS011;64502;59.976;30.316;2022-11-20T01:23:09;2.72;;;0.63;;
75854;SDS011;64502;59.976;30.316;2022-11-20T01:25:35;2.83;;;0.82;;
75854;SDS011;64502;59.976;30.316;2022-11-20T01:28:00;2.33;;;0.85;;
75854;SDS011;64502;59.976;30.316;2022-11-20T01:30:25;3.10;;;0.60;;
75854;SDS011;64502;59.976;30.316;2022-11-20T01:32:51;3.88;;;0.90;;
75854;SDS011;64502;59.976;30.316;2022-11-20T01:35:16;3.33;;;0.68;;
75854;SDS011;64502;59.976;30.316;2022-11-20T01:37:42;3.33;;;0.85;;
75854;SDS011;64502;59.976;30.316;2022-11-20T01:40:08;3.25;;;0.98;;
75854;SDS011;64502;59.976;30.316;2022-11-20T01:42:34;1.88;;;0.32;;
75854;SDS011;64502;59.976;30.316;2022-11-20T01:48:08;2.53;;;1.00;;
75854;SDS011;64502;59.976;30.316;2022-11-20T01:50:34;2.55;;;0.70;;
75854;SDS011;64502;59.976;30.316;2022-11-20T01:53:01;2.80;;;0.55;;
75854;SDS011;64502;59.976;30.316;2022-11-20T01:55:31;3.85;;;0.77;;
75854;SDS011;64502;59.976;30.316;2022-11-20T01:58:00;3.50;;;0.70;;
75854;SDS011;64502;59.976;30.316;2022-11-20T02:00:27;2.42;;;0.80;;
75854;SDS011;64502;59.976;30.316;2022-11-20T02:02:56;2.80;;;0.60;;
75854;SDS011;64502;59.976;30.316;2022-11-20T02:07:48;2.13;;;0.60;;
75854;SDS011;64502;59.976;30.316;2022-11-20T02:10:15;6.97;;;0.73;;
75854;SDS011;64502;59.976;30.316;2022-11-20T02:12:41;2.47;;;0.60;;
75854;SDS011;64502;59.976;30.316;2022-11-20T02:15:25;3.88;;;0.65;;
75854;SDS011;64502;59.976;30.316;2022-11-20T02:17:51;2.72;;;0.75;;
75854;SDS011;64502;59.976;30.316;2022-11-20T02:20:17;2.03;;;0.63;;
75854;SDS011;64502;59.976;30.316;2022-11-20T02:22:48;2.55;;;1.10;;
75854;SDS011;64502;59.976;30.316;2022-11-20T02:25:19;3.53;;;0.85;;
75854;SDS011;64502;59.976;30.316;2022-11-20T02:27:46;3.75;;;0.80;;
75854;SDS011;64502;59.976;30.316;2022-11-20T02:30:11;3.30;;;0.73;;
75854;SDS011;64502;59.976;30.316;2022-11-20T02:32:38;4.80;;;1.02;;
75854;SDS011;64502;59.976;30.316;2022-11-20T02:37:34;4.07;;;0.93;;
75854;SDS011;64502;59.976;30.316;2022-11-20T02:40:03;1.83;;;0.38;;
75854;SDS011;64502;59.976;30.316;2022-11-20T02:42:29;4.15;;;0.63;;
75854;SDS011;64502;59.976;30.316;2022-11-20T02:44:55;4.80;;;1.02;;
75854;SDS011;64502;59.976;30.316;2022-11-20T02:47:20;4.63;;;0.80;;
75854;SDS011;64502;59.976;30.316;2022-11-20T02:49:46;3.20;;;0.70;;
75854;SDS011;64502;59.976;30.316;2022-11-20T02:52:11;4.30;;;0.65;;
75854;SDS011;64502;59.976;30.316;2022-11-20T02:54:36;2.50;;;1.00;;
75854;SDS011;64502;59.976;30.316;2022-11-20T02:57:02;5.25;;;0.90;;
75854;SDS011;64502;59.976;30.316;2022-11-20T02:59:28;4.85;;;0.88;;
75854;SDS011;64502;59.976;30.316;2022-11-20T03:01:53;2.05;;;0.70;;
75854;SDS011;64502;59.976;30.316;2022-11-20T03:04:19;3.85;;;0.77;;
75854;SDS011;64502;59.976;30.316;2022-11-20T03:06:44;4.13;;;0.88;;
75854;SDS011;64502;59.976;30.316;2022-11-20T03:09:10;3.13;;;0.57;;
75854;SDS011;64502;59.976;30.316;2022-11-20T03:11:35;4.20;;;0.82;;
75854;SDS011;64502;59.976;30.316;2022-11-20T03:14:02;3.13;;;0.93;;
75854;SDS011;64502;59.976;30.316;2022-11-20T03:16:28;4.00;;;1.08;;
75854;SDS011;64502;59.976;30.316;2022-11-20T03:18:54;2.70;;;1.10;;
75854;SDS011;64502;59.976;30.316;2022-11-20T03:21:19;2.33;;;0.73;;
75854;SDS011;64502;59.976;30.316;2022-11-20T03:23:45;1.58;;;0.50;;
75854;SDS011;64502;59.976;30.316;2022-11-20T03:26:21;3.63;;;0.93;;
75854;SDS011;64502;59.976;30.316;2022-11-20T03:28:49;2.30;;;0.80;;
75854;SDS011;64502;59.976;30.316;2022-11-20T03:31:20;2.92;;;0.90;;
75854;SDS011;64502;59.976;30.316;2022-11-20T03:33:47;2.53;;;0.82;;
75854;SDS011;64502;59.976;30.316;2022-11-20T03:36:13;2.90;;;0.73;;
75854;SDS011;64502;59.976;30.316;2022-11-20T03:38:40;3.50;;;1.10;;
75854;SDS011;64502;59.976;30.316;2022-11-20T03:41:08;3.20;;;1.17;;
75854;SDS011;64502;59.976;30.316;2022-11-20T03:43:38;3.67;;;0.95;;
75854;SDS011;64502;59.976;30.316;2022-11-20T03:46:04;6.35;;;1.10;;
75854;SDS011;64502;59.976;30.316;2022-11-20T03:48:31;3.45;;;0.80;;
75854;SDS011;64502;59.976;30.316;2022-11-20T03:51:06;3.55;;;0.90;;
75854;SDS011;64502;59.976;30.316;2022-11-20T03:53:33;3.88;;;1.27;;
75854;SDS011;64502;59.976;30.316;2022-11-20T03:55:59;4.25;;;0.90;;
75854;SDS011;64502;59.976;30.316;2022-11-20T03:58:24;3.70;;;1.00;;
75854;SDS011;64502;59.976;30.316;2022-11-20T04:00:50;2.85;;;1.05;;
75854;SDS011;64502;59.976;30.316;2022-11-20T04:03:15;2.80;;;1.00;;
75854;SDS011;64502;59.976;30.316;2022-11-20T04:05:41;4.35;;;1.35;;
75854;SDS011;64502;59.976;30.316;2022-11-20T04:08:06;5.85;;;0.93;;
75854;SDS011;64502;59.976;30.316;2022-11-20T04:10:32;8.57;;;1.60;;
75854;SDS011;64502;59.976;30.316;2022-11-20T04:12:57;3.17;;;1.15;;
75854;SDS011;64502;59.976;30.316;2022-11-20T04:15:22;3.25;;;1.13;;
75854;SDS011;64502;59.976;30.316;2022-11-20T04:17:48;4.20;;;1.38;;
75854;SDS011;64502;59.976;30.316;2022-11-20T04:20:13;3.15;;;0.88;;
75854;SDS011;64502;59.976;30.316;2022-11-20T04:22:39;4.50;;;1.00;;
75854;SDS011;64502;59.976;30.316;2022-11-20T04:25:05;3.72;;;1.02;;
75854;SDS011;64502;59.976;30.316;2022-11-20T04:27:30;3.95;;;1.35;;
75854;SDS011;64502;59.976;30.316;2022-11-20T04:29:56;2.83;;;1.08;;
75854;SDS011;64502;59.976;30.316;2022-11-20T04:32:21;4.85;;;1.27;;
75854;SDS011;64502;59.976;30.316;2022-11-20T04:34:47;3.40;;;1.30;;
75854;SDS011;64502;59.976;30.316;2022-11-20T04:37:12;3.28;;;0.80;;
75854;SDS011;64502;59.976;30.316;2022-11-20T04:39:38;4.63;;;1.60;;
75854;SDS011;64502;59.976;30.316;2022-11-20T04:42:03;3.30;;;1.23;;
75854;SDS011;64502;59.976;30.316;2022-11-20T04:44:47;4.55;;;1.00;;
75854;SDS011;64502;59.976;30.316;2022-11-20T04:47:13;3.63;;;1.10;;
75854;SDS011;64502;59.976;30.316;2022-11-20T04:49:38;5.45;;;1.38;;
75854;SDS011;64502;59.976;30.316;2022-11-20T04:52:04;4.47;;;1.05;;
75854;SDS011;64502;59.976;30.316;2022-11-20T04:54:29;4.28;;;1.02;;
75854;SDS011;64502;59.976;30.316;2022-11-20T04:56:54;2.75;;;1.00;;
75854;SDS011;64502;59.976;30.316;2022-11-20T04:59:20;3.60;;;1.17;;
75854;SDS011;64502;59.976;30.316;2022-11-20T05:01:45;4.38;;;1.42;;
75854;SDS011;64502;59.976;30.316;2022-11-20T05:04:11;4.57;;;1.33;;
75854;SDS011;64502;59.976;30.316;2022-11-20T05:06:36;4.40;;;1.70;;
75854;SDS011;64502;59.976;30.316;2022-11-20T05:09:02;5.13;;;1.20;;
75854;SDS011;64502;59.976;30.316;2022-11-20T05:11:28;5.55;;;1.35;;
75854;SDS011;64502;59.976;30.316;2022-11-20T05:13:57;3.85;;;1.42;;
75854;SDS011;64502;59.976;30.316;2022-11-20T05:16:23;6.50;;;1.52;;
75854;SDS011;64502;59.976;30.316;2022-11-20T05:18:50;5.55;;;1.23;;
75854;SDS011;64502;59.976;30.316;2022-11-20T05:21:16;4.40;;;1.38;;
75854;SDS011;64502;59.976;30.316;2022-11-20T05:23:43;2.88;;;1.20;;
75854;SDS011;64502;59.976;30.316;2022-11-20T05:26:13;5.03;;;1.77;;
75854;SDS011;64502;59.976;30.316;2022-11-20T05:28:43;3.53;;;1.30;;
75854;SDS011;64502;59.976;30.316;2022-11-20T05:31:09;6.93;;;1.45;;
75854;SDS011;64502;59.976;30.316;2022-11-20T05:33:37;3.58;;;0.90;;
75854;SDS011;64502;59.976;30.316;2022-11-20T05:36:06;6.00;;;1.40;;
75854;SDS011;64502;59.976;30.316;2022-11-20T05:38:32;4.57;;;1.30;;
75854;SDS011;64502;59.976;30.316;2022-11-20T05:41:08;4.30;;;1.02;;
75854;SDS011;64502;59.976;30.316;2022-11-20T05:43:39;4.63;;;1.20;;
75854;SDS011;64502;59.976;30.316;2022-11-20T05:46:07;3.00;;;1.13;;
75854;SDS011;64502;59.976;30.316;2022-11-20T05:48:36;3.22;;;1.20;;
75854;SDS011;64502;59.976;30.316;2022-11-20T05:51:03;4.35;;;1.30;;
75854;SDS011;64502;59.976;30.316;2022-11-20T05:53:31;3.10;;;0.95;;
75854;SDS011;64502;59.976;30.316;2022-11-20T05:55:58;4.35;;;1.33;;
75854;SDS011;64502;59.976;30.316;2022-11-20T05:58:31;5.05;;;1.30;;
75854;SDS011;64502;59.976;30.316;2022-11-20T06:01:07;4.13;;;1.15;;
75854;SDS011;64502;59.976;30.316;2022-11-20T06:03:35;3.65;;;1.30;;
75854;SDS011;64502;59.976;30.316;2022-11-20T06:06:02;4.93;;;1.52;;
75854;SDS011;64502;59.976;30.316;2022-11-20T06:08:29;4.45;;;1.60;;
75854;SDS011;64502;59.976;30.316;2022-11-20T06:10:55;4.68;;;1.48;;
75854;SDS011;64502;59.976;30.316;2022-11-20T06:13:20;4.85;;;1.63;;
75854;SDS011;64502;59.976;30.316;2022-11-20T06:15:52;5.15;;;1.75;;
75854;SDS011;64502;59.976;30.316;2022-11-20T06:18:18;5.05;;;2.20;;
75854;SDS011;64502;59.976;30.316;2022-11-20T06:20:45;5.97;;;1.65;;
75854;SDS011;64502;59.976;30.316;2022-11-20T06:23:11;5.60;;;1.95;;
75854;SDS011;64502;59.976;30.316;2022-11-20T06:25:41;4.57;;;1.50;;
75854;SDS011;64502;59.976;30.316;2022-11-20T06:28:08;5.28;;;1.67;;
75854;SDS011;64502;59.976;30.316;2022-11-20T06:30:34;4.95;;;1.80;;
75854;SDS011;64502;59.976;30.316;2022-11-20T06:33:00;7.53;;;1.83;;
75854;SDS011;64502;59.976;30.316;2022-11-20T06:35:25;4.88;;;1.95;;
75854;SDS011;64502;59.976;30.316;2022-11-20T06:37:51;5.38;;;1.95;;
75854;SDS011;64502;59.976;30.316;2022-11-20T06:40:16;4.72;;;1.40;;
75854;SDS011;64502;59.976;30.316;2022-11-20T06:42:42;6.68;;;1.60;;
75854;SDS011;64502;59.976;30.316;2022-11-20T06:45:08;7.70;;;1.70;;
75854;SDS011;64502;59.976;30.316;2022-11-20T06:47:34;5.00;;;1.90;;
75854;SDS011;64502;59.976;30.316;2022-11-20T06:49:59;4.47;;;1.60;;
75854;SDS011;64502;59.976;30.316;2022-11-20T06:52:25;5.38;;;1.73;;
75854;SDS011;64502;59.976;30.316;2022-11-20T06:54:50;3.50;;;1.50;;
75854;SDS011;64502;59.976;30.316;2022-11-20T06:57:16;4.47;;;1.35;;
75854;SDS011;64502;59.976;30.316;2022-11-20T06:59:41;10.75;;;1.05;;
75854;SDS011;64502;59.976;30.316;2022-11-20T07:02:10;2.65;;;1.23;;
75854;SDS011;64502;59.976;30.316;2022-11-20T07:04:37;6.18;;;1.40;;
75854;SDS011;64502;59.976;30.316;2022-11-20T07:07:02;3.55;;;1.23;;
75854;SDS011;64502;59.976;30.316;2022-11-20T07:09:28;3.90;;;1.40;;
75854;SDS011;64502;59.976;30.316;2022-11-20T07:11:53;4.18;;;1.55;;
75854;SDS011;64502;59.976;30.316;2022-11-20T07:14:19;4.63;;;1.88;;
75854;SDS011;64502;59.976;30.316;2022-11-20T07:16:44;3.95;;;1.45;;
75854;SDS011;64502;59.976;30.316;2022-11-20T07:19:10;6.05;;;1.75;;
75854;SDS011;64502;59.976;30.316;2022-11-20T07:21:35;4.15;;;1.55;;
75854;SDS011;64502;59.976;30.316;2022-11-20T07:24:01;7.40;;;1.50;;
75854;SDS011;64502;59.976;30.316;2022-11-20T07:26:27;5.80;;;1.55;;
75854;SDS011;64502;59.976;30.316;2022-11-20T07:28:53;5.18;;;1.60;;
75854;SDS011;64502;59.976;30.316;2022-11-20T07:31:19;4.60;;;1.42;;
75854;SDS011;64502;59.976;30.316;2022-11-20T07:33:44;3.75;;;1.50;;
75854;SDS011;64502;59.976;30.316;2022-11-20T07:36:09;6.53;;;2.40;;
75854;SDS011;64502;59.976;30.316;2022-11-20T07:38:36;5.00;;;1.40;;
75854;SDS011;64502;59.976;30.316;2022-11-20T07:41:02;4.25;;;1.55;;
75854;SDS011;64502;59.976;30.316;2022-11-20T07:43:28;6.03;;;1.83;;
75854;SDS011;64502;59.976;30.316;2022-11-20T07:45:57;6.25;;;2.08;;
75854;SDS011;64502;59.976;30.316;2022-11-20T07:48:24;5.20;;;2.35;;
75854;SDS011;64502;59.976;30.316;2022-11-20T07:50:52;4.63;;;1.67;;
75854;SDS011;64502;59.976;30.316;2022-11-20T07:53:19;6.78;;;1.98;;
75854;SDS011;64502;59.976;30.316;2022-11-20T07:55:46;6.75;;;2.00;;
75854;SDS011;64502;59.976;30.316;2022-11-20T07:58:12;6.07;;;2.10;;
75854;SDS011;64502;59.976;30.316;2022-11-20T08:00:39;5.32;;;2.10;;
75854;SDS011;64502;59.976;30.316;2022-11-20T08:03:06;4.95;;;1.77;;
75854;SDS011;64502;59.976;30.316;2022-11-20T08:05:32;7.28;;;2.05;;
75854;SDS011;64502;59.976;30.316;2022-11-20T08:07:58;5.75;;;1.85;;
75854;SDS011;64502;59.976;30.316;2022-11-20T08:10:23;4.28;;;1.40;;
75854;SDS011;64502;59.976;30.316;2022-11-20T08:12:50;7.18;;;2.22;;
75854;SDS011;64502;59.976;30.316;2022-11-20T08:15:36;5.50;;;1.65;;
75854;SDS011;64502;59.976;30.316;2022-11-20T08:18:07;6.03;;;1.92;;
75854;SDS011;64502;59.976;30.316;2022-11-20T08:20:36;4.13;;;1.20;;
75854;SDS011;64502;59.976;30.316;2022-11-20T08:23:03;3.90;;;2.35;;
75854;SDS011;64502;59.976;30.316;2022-11-20T08:25:30;8.13;;;2.17;;
75854;SDS011;64502;59.976;30.316;2022-11-20T08:27:58;7.30;;;2.15;;
75854;SDS011;64502;59.976;30.316;2022-11-20T08:30:23;5.10;;;1.95;;
75854;SDS011;64502;59.976;30.316;2022-11-20T08:32:49;6.28;;;2.03;;
75854;SDS011;64502;59.976;30.316;2022-11-20T08:35:15;7.97;;;2.58;;
75854;SDS011;64502;59.976;30.316;2022-11-20T08:37:41;5.22;;;1.83;;
75854;SDS011;64502;59.976;30.316;2022-11-20T08:40:09;6.22;;;2.28;;
75854;SDS011;64502;59.976;30.316;2022-11-20T08:42:35;6.07;;;2.38;;
75854;SDS011;64502;59.976;30.316;2022-11-20T08:45:01;9.68;;;2.95;;
75854;SDS011;64502;59.976;30.316;2022-11-20T08:47:26;7.93;;;3.20;;
75854;SDS011;64502;59.976;30.316;2022-11-20T08:49:52;6.68;;;2.30;;
75854;SDS011;64502;59.976;30.316;2022-11-20T08:52:17;5.47;;;2.15;;
75854;SDS011;64502;59.976;30.316;2022-11-20T08:54:43;7.88;;;3.10;;
75854;SDS011;64502;59.976;30.316;2022-11-20T08:57:08;5.25;;;2.00;;
75854;SDS011;64502;59.976;30.316;2022-11-20T08:59:34;7.40;;;2.55;;
75854;SDS011;64502;59.976;30.316;2022-11-20T09:01:59;5.72;;;2.40;;
75854;SDS011;64502;59.976;30.316;2022-11-20T09:04:24;6.95;;;2.38;;
75854;SDS011;64502;59.976;30.316;2022-11-20T09:06:50;6.90;;;2.53;;
75854;SDS011;64502;59.976;30.316;2022-11-20T09:09:16;5.38;;;1.95;;
75854;SDS011;64502;59.976;30.316;2022-11-20T09:11:43;7.72;;;2.42;;
75854;SDS011;64502;59.976;30.316;2022-11-20T09:14:09;6.53;;;2.03;;
75854;SDS011;64502;59.976;30.316;2022-11-20T09:16:34;5.85;;;2.35;;
75854;SDS011;64502;59.976;30.316;2022-11-20T09:19:00;8.35;;;2.33;;
75854;SDS011;64502;59.976;30.316;2022-11-20T09:21:26;5.95;;;2.40;;
75854;SDS011;64502;59.976;30.316;2022-11-20T09:23:51;5.63;;;2.38;;
75854;SDS011;64502;59.976;30.316;2022-11-20T09:26:17;7.85;;;2.60;;
75854;SDS011;64502;59.976;30.316;2022-11-20T09:28:43;8.70;;;2.10;;
75854;SDS011;64502;59.976;30.316;2022-11-20T09:31:09;4.82;;;2.00;;
75854;SDS011;64502;59.976;30.316;2022-11-20T09:33:43;6.38;;;2.45;;
75854;SDS011;64502;59.976;30.316;2022-11-20T09:36:08;4.30;;;1.95;;
75854;SDS011;64502;59.976;30.316;2022-11-20T09:38:33;4.93;;;1.92;;
75854;SDS011;64502;59.976;30.316;2022-11-20T09:41:03;5.63;;;2.05;;
75854;SDS011;64502;59.976;30.316;2022-11-20T09:43:48;5.45;;;2.10;;
75854;SDS011;64502;59.976;30.316;2022-11-20T09:52:08;4.90;;;2.05;;
75854;SDS011;64502;59.976;30.316;2022-11-20T09:54:36;8.73;;;2.25;;
75854;SDS011;64502;59.976;30.316;2022-11-20T10:00:04;6.70;;;1.90;;
75854;SDS011;64502;59.976;30.316;2022-11-20T10:05:12;6.40;;;2.53;;
75854;SDS011;64502;59.976;30.316;2022-11-20T10:10:25;5.32;;;1.85;;
75854;SDS011;64502;59.976;30.316;2022-11-20T10:21:38;6.28;;;2.65;;
75854;SDS011;64502;59.976;30.316;2022-11-20T10:29:27;6.38;;;2.55;;
75854;SDS011;64502;59.976;30.316;2022-11-20T10:32:00;4.57;;;2.03;;
75854;SDS011;64502;59.976;30.316;2022-11-20T10:36:58;6.75;;;1.75;;
75854;SDS011;64502;59.976;30.316;2022-11-20T10:39:31;5.65;;;1.98;;
75854;SDS011;64502;59.976;30.316;2022-11-20T10:41:57;6.35;;;2.47;;
75854;SDS011;64502;59.976;30.316;2022-11-20T10:44:28;6.15;;;2.33;;
75854;SDS011;64502;59.976;30.316;2022-11-20T10:47:17;5.60;;;2.15;;
75854;SDS011;64502;59.976;30.316;2022-11-20T10:49:45;5.22;;;1.90;;
75854;SDS011;64502;59.976;30.316;2022-11-20T11:00:19;6.68;;;2.15;;
75854;SDS011;64502;59.976;30.316;2022-11-20T11:05:32;7.20;;;2.72;;
75854;SDS011;64502;59.976;30.316;2022-11-20T11:08:15;7.28;;;2.50;;
75854;SDS011;64502;59.976;30.316;2022-11-20T11:13:32;8.02;;;2.63;;
75854;SDS011;64502;59.976;30.316;2022-11-20T11:15:57;8.77;;;2.38;;
75854;SDS011;64502;59.976;30.316;2022-11-20T11:20:50;10.63;;;2.60;;
75854;SDS011;64502;59.976;30.316;2022-11-20T11:25:58;7.40;;;2.83;;
75854;SDS011;64502;59.976;30.316;2022-11-20T11:28:25;7.18;;;2.90;;
75854;SDS011;64502;59.976;30.316;2022-11-20T11:30:52;7.65;;;2.20;;
75854;SDS011;64502;59.976;30.316;2022-11-20T11:33:20;6.10;;;2.25;;
75854;SDS011;64502;59.976;30.316;2022-11-20T11:38:34;6.30;;;2.55;;
75854;SDS011;64502;59.976;30.316;2022-11-20T11:41:03;5.00;;;2.10;;
75854;SDS011;64502;59.976;30.316;2022-11-20T11:43:31;8.75;;;3.15;;
75854;SDS011;64502;59.976;30.316;2022-11-20T11:48:59;7.03;;;2.72;;
75854;SDS011;64502;59.976;30.316;2022-11-20T11:51:31;6.55;;;2.45;;
75854;SDS011;64502;59.976;30.316;2022-11-20T11:54:03;7.00;;;2.38;;
75854;SDS011;64502;59.976;30.316;2022-11-20T11:56:35;6.47;;;2.42;;
75854;SDS011;64502;59.976;30.316;2022-11-20T11:59:02;9.90;;;2.90;;
75854;SDS011;64502;59.976;30.316;2022-11-20T12:01:36;7.13;;;3.13;;
75854;SDS011;64502;59.976;30.316;2022-11-20T12:04:23;6.85;;;2.50;;
75854;SDS011;64502;59.976;30.316;2022-11-20T12:07:01;9.13;;;2.72;;
75854;SDS011;64502;59.976;30.316;2022-11-20T12:09:42;7.18;;;3.08;;
75854;SDS011;64502;59.976;30.316;2022-11-20T12:12:17;5.82;;;2.58;;
75854;SDS011;64502;59.976;30.316;2022-11-20T12:14:49;7.30;;;2.42;;
75854;SDS011;64502;59.976;30.316;2022-11-20T12:17:19;7.95;;;3.33;;
75854;SDS011;64502;59.976;30.316;2022-11-20T12:19:46;9.70;;;3.00;;
75854;SDS011;64502;59.976;30.316;2022-11-20T12:24:50;7.15;;;2.50;;
75854;SDS011;64502;59.976;30.316;2022-11-20T12:30:24;7.22;;;2.42;;
75854;SDS011;64502;59.976;30.316;2022-11-20T12:44:03;6.15;;;1.83;;
75854;SDS011;64502;59.976;30.316;2022-11-20T12:50:22;7.65;;;2.90;;
75854;SDS011;64502;59.976;30.316;2022-11-20T12:52:53;6.68;;;2.30;;
75854;SDS011;64502;59.976;30.316;2022-11-20T13:04:12;9.05;;;3.47;;
75854;SDS011;64502;59.976;30.316;2022-11-20T13:06:50;8.60;;;2.83;;
75854;SDS011;64502;59.976;30.316;2022-11-20T13:09:17;8.90;;;2.65;;
75854;SDS011;64502;59.976;30.316;2022-11-20T13:14:52;5.95;;;2.58;;
75854;SDS011;64502;59.976;30.316;2022-11-20T13:19:58;7.07;;;2.40;;
75854;SDS011;64502;59.976;30.316;2022-11-20T13:22:25;9.02;;;3.15;;
75854;SDS011;64502;59.976;30.316;2022-11-20T13:24:52;10.57;;;2.40;;
75854;SDS011;64502;59.976;30.316;2022-11-20T13:27:18;8.25;;;2.85;;
75854;SDS011;64502;59.976;30.316;2022-11-20T13:30:31;8.48;;;2.75;;
75854;SDS011;64502;59.976;30.316;2022-11-20T13:32:47;8.43;;;2.65;;
75854;SDS011;64502;59.976;30.316;2022-11-20T13:35:24;6.68;;;2.85;;
75854;SDS011;64502;59.976;30.316;2022-11-20T13:37:59;6.95;;;2.58;;
75854;SDS011;64502;59.976;30.316;2022-11-20T13:40:26;7.50;;;2.67;;
75854;SDS011;64502;59.976;30.316;2022-11-20T13:43:02;8.15;;;2.65;;
75854;SDS011;64502;59.976;30.316;2022-11-20T13:46:02;6.78;;;2.17;;
75854;SDS011;64502;59.976;30.316;2022-11-20T13:48:31;10.25;;;3.05;;
75854;SDS011;64502;59.976;30.316;2022-11-20T14:00:20;7.80;;;2.75;;
75854;SDS011;64502;59.976;30.316;2022-11-20T14:02:57;8.15;;;2.78;;
75854;SDS011;64502;59.976;30.316;2022-11-20T14:05:25;7.22;;;2.60;;
75854;SDS011;64502;59.976;30.316;2022-11-20T14:07:50;16.20;;;3.00;;
75854;SDS011;64502;59.976;30.316;2022-11-20T14:10:22;7.20;;;2.85;;
75854;SDS011;64502;59.976;30.316;2022-11-20T14:12:52;7.97;;;2.80;;
75854;SDS011;64502;59.976;30.316;2022-11-20T14:17:57;7.03;;;2.80;;
75854;SDS011;64502;59.976;30.316;2022-11-20T14:20:27;8.43;;;3.03;;
75854;SDS011;64502;59.976;30.316;2022-11-20T14:22:55;8.05;;;2.67;;
75854;SDS011;64502;59.976;30.316;2022-11-20T14:25:24;8.10;;;3.25;;
75854;SDS011;64502;59.976;30.316;2022-11-20T14:27:59;9.07;;;3.30;;
75854;SDS011;64502;59.976;30.316;2022-11-20T14:30:43;5.90;;;2.45;;
75854;SDS011;64502;59.976;30.316;2022-11-20T14:33:12;7.53;;;2.50;;
75854;SDS011;64502;59.976;30.316;2022-11-20T14:35:49;6.70;;;3.03;;
75854;SDS011;64502;59.976;30.316;2022-11-20T14:38:18;5.93;;;2.20;;
75854;SDS011;64502;59.976;30.316;2022-11-20T14:40:47;12.10;;;2.85;;
75854;SDS011;64502;59.976;30.316;2022-11-20T14:43:23;8.85;;;3.20;;
75854;SDS011;64502;59.976;30.316;2022-11-20T14:45:58;5.97;;;2.78;;
75854;SDS011;64502;59.976;30.316;2022-11-20T14:48:32;8.88;;;2.38;;
75854;SDS011;64502;59.976;30.316;2022-11-20T14:51:03;7.28;;;3.28;;
75854;SDS011;64502;59.976;30.316;2022-11-20T14:53:29;7.90;;;3.20;;
75854;SDS011;64502;59.976;30.316;2022-11-20T14:55:58;5.95;;;2.75;;
75854;SDS011;64502;59.976;30.316;2022-11-20T14:58:26;8.77;;;3.22;;
75854;SDS011;64502;59.976;30.316;2022-11-20T15:00:58;8.88;;;3.17;;
75854;SDS011;64502;59.976;30.316;2022-11-20T15:03:36;9.70;;;3.00;;
75854;SDS011;64502;59.976;30.316;2022-11-20T15:06:03;6.18;;;2.40;;
75854;SDS011;64502;59.976;30.316;2022-11-20T15:08:29;6.85;;;3.03;;
75854;SDS011;64502;59.976;30.316;2022-11-20T15:10:55;6.63;;;2.70;;
75854;SDS011;64502;59.976;30.316;2022-11-20T15:13:36;8.48;;;3.00;;
75854;SDS011;64502;59.976;30.316;2022-11-20T15:16:04;6.63;;;2.80;;
75854;SDS011;64502;59.976;30.316;2022-11-20T15:18:42;6.80;;;2.53;;
75854;SDS011;64502;59.976;30.316;2022-11-20T15:21:15;10.98;;;3.28;;
75854;SDS011;64502;59.976;30.316;2022-11-20T15:23:41;5.03;;;2.25;;
75854;SDS011;64502;59.976;30.316;2022-11-20T15:26:08;6.40;;;2.67;;
75854;SDS011;64502;59.976;30.316;2022-11-20T15:28:42;5.60;;;2.47;;
75854;SDS011;64502;59.976;30.316;2022-11-20T15:31:13;8.00;;;2.55;;
75854;SDS011;64502;59.976;30.316;2022-11-20T15:33:40;7.25;;;2.70;;
75854;SDS011;64502;59.976;30.316;2022-11-20T15:36:05;7.93;;;3.30;;
75854;SDS011;64502;59.976;30.316;2022-11-20T15:38:31;6.70;;;3.35;;
75854;SDS011;64502;59.976;30.316;2022-11-20T15:40:56;6.05;;;2.40;;
75854;SDS011;64502;59.976;30.316;2022-11-20T15:43:22;7.78;;;2.88;;
75854;SDS011;64502;59.976;30.316;2022-11-20T15:48:14;7.47;;;2.50;;
75854;SDS011;64502;59.976;30.316;2022-11-20T15:50:49;7.32;;;2.75;;
75854;SDS011;64502;59.976;30.316;2022-11-20T15:53:18;7.20;;;2.67;;
75854;SDS011;64502;59.976;30.316;2022-11-20T15:55:44;7.20;;;2.58;;
75854;SDS011;64502;59.976;30.316;2022-11-20T15:58:09;5.95;;;3.13;;
75854;SDS011;64502;59.976;30.316;2022-11-20T16:00:35;8.57;;;2.85;;
75854;SDS011;64502;59.976;30.316;2022-11-20T16:03:00;9.50;;;3.00;;
75854;SDS011;64502;59.976;30.316;2022-11-20T16:05:29;10.77;;;3.08;;
75854;SDS011;64502;59.976;30.316;2022-11-20T16:07:54;6.55;;;2.78;;
75854;SDS011;64502;59.976;30.316;2022-11-20T16:10:20;10.10;;;3.38;;
75854;SDS011;64502;59.976;30.316;2022-11-20T16:12:46;12.75;;;3.72;;
75854;SDS011;64502;59.976;30.316;2022-11-20T16:15:30;9.48;;;3.90;;
75854;SDS011;64502;59.976;30.316;2022-11-20T16:18:12;9.15;;;4.00;;
75854;SDS011;64502;59.976;30.316;2022-11-20T16:20:39;7.95;;;3.22;;
75854;SDS011;64502;59.976;30.316;2022-11-20T16:23:05;10.32;;;3.45;;
75854;SDS011;64502;59.976;30.316;2022-11-20T16:25:31;8.32;;;3.25;;
75854;SDS011;64502;59.976;30.316;2022-11-20T16:27:58;10.43;;;3.75;;
75854;SDS011;64502;59.976;30.316;2022-11-20T16:30:24;9.88;;;3.35;;
75854;SDS011;64502;59.976;30.316;2022-11-20T16:32:50;10.77;;;3.53;;